x

South Brooks (46132) Wave Buoy

11:00am - Wed 1st Mar 2017 All times are PST. -8 hours from GMT.

  • Sig Wave height 10.8ft
  • Peak Period 12s
  • Wind
    7mph, 11mph gusts
  • Sea Temp 47°f
  • Air Temp 44°f
  • Sea Pressure 1027.2mb
  • South Brooks
  • South Brooks

More Historic Weather Station data

Upgrade to MSW Pro to gain access to the past 30 days of data for over 8000 Wavebouys and Weather Stations around the globe.

Join Pro

Comparision Forecast

View Surf forecast
   
Wed 03/01 11:00am 11ft 12s 7 11 mph 1027.2mb 47f 44f
10:00am 11.5ft 12s 4 9 mph 1026.7mb 47f 44f
9:00am 10.5ft 12s 4 9 mph 1026.1mb 47f 44f
8:00am 10.5ft 12s 4 13 mph 1025.3mb 46f 43f
7:00am 10ft 11s 2 9 mph 1024.6mb 46f 41f
6:00am 10ft 10s 7 16 mph 1023.6mb 47f 44f
5:00am 10ft 11s 4 13 mph 1023mb 46f 43f
4:00am 10.5ft 11s 2 9 mph 1022.4mb 46f 41f
3:00am 11ft 11s 4 18 mph 1021.7mb 46f 41f
2:00am 11ft 10s 2 11 mph 1021.4mb 47f 42f
1:00am 10ft 10s 2 11 mph 1020.7mb 46f 41f
12:00am 11ft 11s 2 9 mph 1019.9mb 46f 42f
Tue 02/28 11:00pm 10.5ft 10s 9 18 mph 1019.1mb 46f 44f
10:00pm 11ft 10s 9 20 mph 1018.2mb 46f 45f
9:00pm 9.5ft 9s 9 18 mph 1017.5mb 47f 44f
8:00pm 9ft 8s 11 25 mph 1017mb 47f 43f
7:00pm 8.5ft 10s 13 22 mph 1015.7mb 47f 43f
6:00pm 8.5ft 10s 18 27 mph 1015mb 47f 45f
5:00pm 8ft 9s 13 29 mph 1014.8mb 47f 43f
4:00pm 8ft 10s 13 25 mph 1014.6mb 47f 44f
2:00pm 7.5ft 10s 18 29 mph 1013.9mb 47f 44f
1:00pm 8ft 9s 18 25 mph 1013.4mb 47f 45f
12:00pm 6.5ft 10s 13 25 mph 1013.3mb 47f 45f
11:00am 6.5ft 10s 7 20 mph 1013.3mb 47f 44f
10:00am 7ft 10s 7 18 mph 1013.4mb 47f 43f
9:00am 7ft 9s 4 13 mph 1013.4mb 47f 43f
8:00am 8ft 10s 4 9 mph 1013.3mb 47f 43f
7:00am 7ft 10s 4 11 mph 1013.1mb 47f 43f
5:00am 7.5ft 10s 2 9 mph 1012.4mb 47f 43f
4:00am 7ft 10s 9 13 mph 1012mb 47f 42f
3:00am 7.5ft 10s 11 18 mph 1011.7mb 47f 42f
2:00am 8.5ft 10s 11 20 mph 1011mb 47f 42f
1:00am 8.5ft 9s 11 20 mph 1010.5mb 47f 42f
12:00am 9ft 10s 11 20 mph 1010mb 47f 42f
Mon 02/27 11:00pm 9ft 8s 13 22 mph 1009.8mb 47f 42f
10:00pm 9ft 8s 13 22 mph 1009.5mb 47f 42f
9:00pm 9.5ft 9s 13 25 mph 1009.3mb 47f 42f
8:00pm 10ft 10s 18 27 mph 1008.8mb 47f 42f
7:00pm  -   -  22
mph
1008.2mb - 42f
5:00pm 8ft 14s 18 29 mph 1007.4mb 47f 42f
4:00pm 8ft 14s 16 27 mph 1007.4mb 47f 40f
3:00pm 7.5ft 15s 18 22 mph 1007.1mb 47f 42f
2:00pm 7.5ft 15s 18 27 mph 1006.7mb 47f 42f
1:00pm 7.5ft 14s 18 27 mph 1006.8mb 47f 41f
12:00pm 7.5ft 15s 11 18 mph 1006.9mb 47f 41f
11:00am 7ft 10s 9 13 mph 1007.1mb 47f 40f
10:00am 7ft 10s 4 11 mph 1006.7mb 47f 40f
9:00am 8ft 15s 4 11 mph 1006.8mb 47f 40f
8:00am 8ft 10s 4 16 mph 1006.8mb 47f 39f
7:00am 9ft 15s 7 13 mph 1006.8mb 47f 40f
6:00am 9ft 10s 9 16 mph 1007.1mb 47f 40f
5:00am 10ft 11s 9 18 mph 1007mb 47f 42f
4:00am 10.5ft 11s 11 20 mph 1007.2mb 47f 42f
3:00am 11.5ft 11s 18 27 mph 1007.5mb 47f 43f
2:00am 11ft 10s 20 27 mph 1008.2mb 47f 43f
1:00am 11ft 11s 20 27 mph 1008.4mb 47f 43f
12:00am 11.5ft 11s 20 29 mph 1008.5mb 46f 43f
Sun 02/26 11:00pm 11ft 14s 20 29 mph 1008.4mb 46f 43f
10:00pm 10.5ft 12s 22 27 mph 1008.9mb 46f 43f
9:00pm 11.5ft 11s 22 27 mph 1009.2mb 46f 43f
8:00pm 11.5ft 12s 20 27 mph 1009.3mb 46f 44f
7:00pm 10.5ft 14s 25 31 mph 1009.5mb 46f 44f
6:00pm  -   -  22
mph
- - -
5:00pm 12.5ft 12s 22 29 mph 1009.4mb 46f 44f
4:00pm 12ft 13s 20 25 mph 1009.3mb 47f 44f
3:00pm 13ft 12s 18 22 mph 1009.4mb 47f 44f
2:00pm 12.5ft 12s 13 18 mph 1009.6mb 47f 44f
1:00pm 12.5ft 12s 13 18 mph 1009.5mb 47f 43f
12:00pm 12ft 12s 13 20 mph 1009.6mb 47f 43f
11:00am 12.5ft 13s 16 22 mph 1009.7mb 47f 43f
10:00am 12ft 11s 9 16 mph 1009.5mb 47f 44f
9:00am 12ft 11s 11 18 mph 1008.9mb 47f 43f
8:00am 12.5ft 12s 16 22 mph 1008.3mb 47f 42f
7:00am 12ft 11s 16 25 mph 1007.5mb 47f 41f
6:00am 11.5ft 10s 27 31 mph 1007.1mb 47f 41f
5:00am 11.5ft 16s 27 34 mph 1006.6mb 47f 41f
4:00am 10ft 9s 20 29 mph 1006.7mb 47f 41f
3:00am 10.5ft 17s 4 11 mph 1006.8mb 47f 41f
2:00am 10.5ft 16s 4 13 mph 1007mb 47f 40f
1:00am 10ft 16s 4 11 mph 1007.2mb 47f 41f
12:00am 10ft 16s 2 7 mph 1007.6mb 47f 42f
Sat 02/25 11:00pm 10ft 17s 11 16 mph 1007.9mb 47f 43f
10:00pm 10ft 15s 18 27 mph 1008.7mb 47f 44f
9:00pm 9ft 16s 11 25 mph 1009.7mb 47f 43f